createdAt,value
2018-12-30T00:00:28.271Z,3.20
2018-12-30T00:01:28.260Z,3.25
2018-12-30T00:02:28.240Z,3.35
2018-12-30T00:03:28.222Z,3.41
2018-12-30T00:04:28.207Z,3.46
2018-12-30T00:05:28.191Z,3.42
2018-12-30T00:06:28.177Z,3.45
2018-12-30T00:07:28.159Z,3.46
2018-12-30T00:08:28.143Z,3.42
2018-12-30T00:09:28.129Z,3.35
2018-12-30T00:10:28.140Z,3.41
2018-12-30T00:11:28.095Z,3.39
2018-12-30T00:12:28.079Z,3.35
2018-12-30T00:13:28.066Z,3.34
2018-12-30T00:14:28.047Z,3.37
2018-12-30T00:15:28.029Z,3.39
2018-12-30T00:16:28.015Z,3.37
2018-12-30T00:17:28.000Z,3.22
2018-12-30T00:18:27.982Z,3.45
2018-12-30T00:19:27.965Z,3.53
2018-12-30T00:20:27.952Z,3.44
2018-12-30T00:21:27.935Z,3.45
2018-12-30T00:22:27.917Z,3.37
2018-12-30T00:23:27.901Z,3.42
2018-12-30T00:24:27.886Z,3.34
2018-12-30T00:25:27.868Z,3.30
2018-12-30T00:26:27.852Z,3.39
2018-12-30T00:27:27.835Z,3.42
2018-12-30T00:28:27.821Z,3.34
2018-12-30T00:29:27.804Z,3.23
2018-12-30T00:30:27.787Z,3.34
2018-12-30T00:31:27.774Z,3.42
2018-12-30T00:32:27.755Z,3.52
2018-12-30T00:33:27.743Z,3.42
2018-12-30T00:34:27.727Z,3.37
2018-12-30T00:35:27.707Z,3.23
2018-12-30T00:36:27.692Z,3.26
2018-12-30T00:37:27.676Z,3.26
2018-12-30T00:38:27.660Z,3.30
2018-12-30T00:39:27.642Z,3.25
2018-12-30T00:40:27.627Z,3.23
2018-12-30T00:41:27.613Z,3.26
2018-12-30T00:42:27.594Z,3.23
2018-12-30T00:43:27.579Z,3.23
2018-12-30T00:44:27.563Z,3.20
2018-12-30T00:45:27.546Z,3.20
2018-12-30T00:46:27.529Z,3.26
2018-12-30T00:47:27.514Z,3.25
2018-12-30T00:48:27.499Z,3.20
2018-12-30T00:49:27.485Z,3.16
2018-12-30T00:50:27.467Z,3.13
2018-12-30T00:51:27.449Z,3.12
2018-12-30T00:52:27.435Z,3.15
2018-12-30T00:53:27.419Z,3.12
2018-12-30T00:54:27.400Z,3.12
2018-12-30T00:55:27.386Z,3.17
2018-12-30T00:56:27.374Z,3.26
2018-12-30T00:57:27.352Z,3.28
2018-12-30T00:58:27.336Z,3.19
2018-12-30T00:59:27.321Z,3.16
2018-12-30T01:00:27.303Z,3.25
2018-12-30T01:01:27.288Z,3.23
2018-12-30T01:02:27.272Z,3.31
2018-12-30T01:03:27.256Z,3.37
2018-12-30T01:04:27.241Z,3.33
2018-12-30T01:05:27.223Z,3.25
2018-12-30T01:06:27.206Z,3.22
2018-12-30T01:07:27.190Z,3.37
2018-12-30T01:08:27.174Z,3.34
2018-12-30T01:09:27.160Z,3.22
2018-12-30T01:10:27.143Z,3.23
2018-12-30T01:11:27.127Z,3.31
2018-12-30T01:12:27.113Z,3.28
2018-12-30T01:13:27.095Z,3.30
2018-12-30T01:14:27.079Z,3.45
2018-12-30T01:15:27.061Z,3.39
2018-12-30T01:16:27.047Z,3.45
2018-12-30T01:17:27.030Z,3.49
2018-12-30T01:18:27.013Z,3.44
2018-12-30T01:19:26.997Z,3.45
2018-12-30T01:20:26.980Z,3.52
2018-12-30T01:21:26.965Z,3.37
2018-12-30T01:22:26.948Z,3.37
2018-12-30T01:23:26.935Z,3.46
2018-12-30T01:24:26.915Z,3.31
2018-12-30T01:25:26.900Z,3.39
2018-12-30T01:26:26.885Z,3.41
2018-12-30T01:27:26.868Z,3.42
2018-12-30T01:28:26.851Z,3.50
2018-12-30T01:29:26.837Z,3.49
2018-12-30T01:30:26.820Z,3.41
2018-12-30T01:31:26.802Z,3.37
2018-12-30T01:32:26.787Z,3.35
2018-12-30T01:33:26.771Z,3.37
2018-12-30T01:34:26.753Z,3.37
2018-12-30T01:35:26.740Z,3.33
2018-12-30T01:36:26.721Z,3.22
2018-12-30T01:37:26.707Z,3.25
2018-12-30T01:38:26.689Z,3.49
2018-12-30T01:39:26.673Z,3.39
2018-12-30T01:40:26.657Z,3.49
2018-12-30T01:41:26.641Z,3.50
2018-12-30T01:42:26.624Z,3.35
2018-12-30T01:43:26.609Z,3.37
2018-12-30T01:44:26.594Z,3.35
2018-12-30T01:45:26.578Z,3.31
2018-12-30T01:46:26.559Z,3.39
2018-12-30T01:47:26.545Z,3.34
2018-12-30T01:48:26.535Z,3.28
2018-12-30T01:49:26.514Z,3.22
2018-12-30T01:50:26.495Z,3.19
2018-12-30T01:51:33.047Z,3.31
2018-12-30T01:52:26.487Z,3.30
2018-12-30T01:53:26.450Z,3.28
2018-12-30T01:54:26.429Z,3.26
2018-12-30T01:55:26.413Z,3.22
2018-12-30T01:56:26.399Z,3.23
2018-12-30T01:57:26.383Z,3.37
2018-12-30T01:58:26.366Z,3.30
2018-12-30T01:59:26.350Z,3.37
2018-12-30T02:00:26.336Z,3.30
2018-12-30T02:01:26.323Z,3.23
2018-12-30T02:02:26.302Z,3.26
2018-12-30T02:03:26.289Z,3.28
2018-12-30T02:04:26.271Z,3.20
2018-12-30T02:05:26.255Z,3.34
2018-12-30T02:06:26.237Z,3.31
2018-12-30T02:07:26.223Z,3.34
2018-12-30T02:08:26.207Z,3.23
2018-12-30T02:09:26.191Z,3.39
2018-12-30T02:10:26.175Z,3.45
2018-12-30T02:11:26.159Z,3.41
2018-12-30T02:12:26.141Z,3.50
2018-12-30T02:13:26.131Z,3.45
2018-12-30T02:14:26.110Z,3.46
2018-12-30T02:15:26.093Z,3.44
2018-12-30T02:16:26.078Z,3.44
2018-12-30T02:17:26.063Z,3.37
2018-12-30T02:18:26.045Z,3.44
2018-12-30T02:19:26.028Z,3.20
2018-12-30T02:20:26.015Z,3.25
2018-12-30T02:21:25.998Z,3.28
2018-12-30T02:22:25.979Z,3.25
2018-12-30T02:23:25.963Z,3.22
2018-12-30T02:24:25.947Z,3.22
2018-12-30T02:25:25.936Z,3.25
2018-12-30T02:26:25.917Z,3.20
2018-12-30T02:27:25.898Z,3.22
2018-12-30T02:28:25.883Z,3.20
2018-12-30T02:29:25.867Z,3.19
2018-12-30T02:30:25.852Z,3.17
2018-12-30T02:31:25.837Z,3.22
2018-12-30T02:32:25.822Z,3.28
2018-12-30T02:33:25.806Z,3.30
2018-12-30T02:34:25.791Z,3.39
2018-12-30T02:35:25.773Z,3.33
2018-12-30T02:36:25.756Z,3.26
2018-12-30T02:37:25.738Z,3.25
2018-12-30T02:38:25.722Z,3.30
2018-12-30T02:39:25.708Z,3.39
2018-12-30T02:40:25.706Z,3.45
2018-12-30T02:41:25.676Z,3.42
2018-12-30T02:42:25.658Z,3.37
2018-12-30T02:43:25.644Z,3.41
2018-12-30T02:44:25.625Z,3.52
2018-12-30T02:45:25.610Z,3.42
2018-12-30T02:46:25.593Z,3.44
2018-12-30T02:47:25.579Z,3.45
2018-12-30T02:48:25.564Z,3.45
2018-12-30T02:49:25.550Z,3.42
2018-12-30T02:50:25.529Z,3.54
2018-12-30T02:51:25.514Z,3.53
2018-12-30T02:52:25.499Z,3.50
2018-12-30T02:53:25.488Z,3.60
2018-12-30T02:54:25.464Z,3.60
2018-12-30T02:55:25.448Z,3.62
2018-12-30T02:56:25.433Z,3.50
2018-12-30T02:57:25.420Z,3.44
2018-12-30T02:58:25.400Z,3.53
2018-12-30T02:59:25.564Z,3.54
2018-12-30T03:00:25.374Z,3.45
2018-12-30T03:01:25.353Z,3.45
2018-12-30T03:02:25.335Z,3.53
2018-12-30T03:03:25.327Z,3.57
2018-12-30T03:04:25.301Z,3.54
2018-12-30T03:05:25.369Z,3.60
2018-12-30T03:06:25.271Z,3.62
2018-12-30T03:07:25.255Z,3.59
2018-12-30T03:08:25.239Z,3.56
2018-12-30T03:09:25.233Z,3.42
2018-12-30T03:10:25.205Z,3.45
2018-12-30T03:11:25.189Z,3.50
2018-12-30T03:12:25.173Z,3.45
2018-12-30T03:13:25.157Z,3.41
2018-12-30T03:14:25.140Z,3.44
2018-12-30T03:15:25.127Z,3.41
2018-12-30T03:16:25.108Z,3.45
2018-12-30T03:17:25.092Z,3.46
2018-12-30T03:18:25.078Z,3.44
2018-12-30T03:19:25.060Z,3.46
2018-12-30T03:20:25.047Z,3.45
2018-12-30T03:21:25.029Z,3.37
2018-12-30T03:22:25.010Z,3.42
2018-12-30T03:23:24.994Z,3.34
2018-12-30T03:24:24.983Z,3.39
2018-12-30T03:25:24.964Z,3.45
2018-12-30T03:26:24.946Z,3.46
2018-12-30T03:27:24.930Z,3.41
2018-12-30T03:28:24.915Z,3.57
2018-12-30T03:29:24.900Z,3.59
2018-12-30T03:30:24.885Z,3.60
2018-12-30T03:31:24.888Z,3.68
2018-12-30T03:32:24.854Z,3.59
2018-12-30T03:33:24.835Z,3.63
2018-12-30T03:34:24.817Z,3.50
2018-12-30T03:35:24.801Z,3.54
2018-12-30T03:36:24.787Z,3.49
2018-12-30T03:37:24.770Z,3.60
2018-12-30T03:38:24.755Z,3.52
2018-12-30T03:39:24.738Z,3.59
2018-12-30T03:40:24.722Z,3.70
2018-12-30T03:41:24.707Z,3.64
2018-12-30T03:42:24.691Z,3.62
2018-12-30T03:43:24.674Z,3.56
2018-12-30T03:44:24.656Z,3.56
2018-12-30T03:45:24.642Z,3.53
2018-12-30T03:46:24.626Z,3.52
2018-12-30T03:47:24.610Z,3.50
2018-12-30T03:48:24.595Z,3.49
2018-12-30T03:49:24.579Z,3.45
2018-12-30T03:50:24.560Z,3.53
2018-12-30T03:51:24.544Z,3.50
2018-12-30T03:52:24.534Z,3.45
2018-12-30T03:53:24.514Z,3.44
2018-12-30T03:54:24.498Z,3.60
2018-12-30T03:55:24.482Z,3.56
2018-12-30T03:56:24.465Z,3.50
2018-12-30T03:57:24.452Z,3.59
2018-12-30T03:58:24.436Z,3.53
2018-12-30T03:59:24.417Z,3.60
2018-12-30T04:00:24.401Z,3.63
2018-12-30T04:01:24.386Z,3.67
2018-12-30T04:02:24.368Z,3.64
2018-12-30T04:03:24.391Z,3.63
2018-12-30T04:04:24.345Z,3.62
2018-12-30T04:05:24.323Z,3.68
2018-12-30T04:06:24.306Z,3.54
2018-12-30T04:07:24.290Z,3.70
2018-12-30T04:08:24.272Z,3.70
2018-12-30T04:09:24.259Z,3.72
2018-12-30T04:10:24.244Z,3.74
2018-12-30T04:11:24.224Z,3.75
2018-12-30T04:12:24.215Z,3.78
2018-12-30T04:13:24.193Z,3.82
2018-12-30T04:14:24.179Z,3.95
2018-12-30T04:15:24.168Z,3.93
2018-12-30T04:16:24.145Z,3.80
2018-12-30T04:17:24.130Z,3.86
2018-12-30T04:18:24.115Z,3.84
2018-12-30T04:19:24.099Z,3.86
2018-12-30T04:20:24.085Z,3.96
2018-12-30T04:21:24.068Z,3.82
2018-12-30T04:22:24.051Z,3.90
2018-12-30T04:23:24.035Z,3.89
2018-12-30T04:24:24.018Z,3.86
2018-12-30T04:25:24.003Z,3.78
2018-12-30T04:26:23.987Z,3.81
2018-12-30T04:27:23.972Z,3.74
2018-12-30T04:28:23.955Z,3.78
2018-12-30T04:29:23.938Z,3.72
2018-12-30T04:30:23.922Z,3.75
2018-12-30T04:31:23.909Z,3.72
2018-12-30T04:32:23.891Z,3.77
2018-12-30T04:33:23.876Z,3.82
2018-12-30T04:34:23.858Z,3.82
2018-12-30T04:35:23.844Z,3.80
2018-12-30T04:36:23.830Z,3.74
2018-12-30T04:37:23.814Z,3.80
2018-12-30T04:38:23.795Z,3.75
2018-12-30T04:39:23.781Z,3.72
2018-12-30T04:40:23.764Z,3.82
2018-12-30T04:41:23.749Z,3.80
2018-12-30T04:42:23.731Z,3.74
2018-12-30T04:43:23.722Z,3.71
2018-12-30T04:44:23.702Z,3.75
2018-12-30T04:45:23.685Z,3.75
2018-12-30T04:46:23.670Z,3.72
2018-12-30T04:47:23.653Z,3.72
2018-12-30T04:48:23.637Z,3.77
2018-12-30T04:49:23.625Z,3.71
2018-12-30T04:50:23.605Z,3.68
2018-12-30T04:51:23.592Z,3.62
2018-12-30T04:52:25.867Z,3.68
2018-12-30T04:53:23.561Z,3.70
2018-12-30T04:54:23.541Z,3.56
2018-12-30T04:55:23.529Z,3.68
2018-12-30T04:56:23.516Z,3.63
2018-12-30T04:57:23.497Z,3.77
2018-12-30T04:58:23.480Z,3.67
2018-12-30T04:59:23.461Z,3.72
2018-12-30T05:00:23.446Z,3.74
2018-12-30T05:01:23.515Z,3.80
2018-12-30T05:02:23.414Z,3.77
2018-12-30T05:03:23.403Z,3.74
2018-12-30T05:04:23.383Z,3.75
2018-12-30T05:05:23.376Z,3.71
2018-12-30T05:06:23.351Z,3.77
2018-12-30T05:07:23.335Z,3.77
2018-12-30T05:08:23.319Z,3.71
2018-12-30T05:09:23.304Z,3.80
2018-12-30T05:10:23.294Z,3.75
2018-12-30T05:11:23.271Z,3.70
2018-12-30T05:12:23.258Z,3.72
2018-12-30T05:13:23.240Z,3.70
2018-12-30T05:14:23.225Z,3.72
2018-12-30T05:15:23.208Z,3.72
2018-12-30T05:16:23.194Z,3.70
2018-12-30T05:17:23.177Z,3.70
2018-12-30T05:18:23.162Z,3.71
2018-12-30T05:19:23.146Z,3.68
2018-12-30T05:20:23.135Z,3.72
2018-12-30T05:21:23.114Z,3.64
2018-12-30T05:22:23.101Z,3.64
2018-12-30T05:23:23.084Z,3.74
2018-12-30T05:24:23.067Z,3.75
2018-12-30T05:25:23.051Z,3.74
2018-12-30T05:26:23.038Z,3.75
2018-12-30T05:27:23.018Z,3.81
2018-12-30T05:28:23.003Z,3.75
2018-12-30T05:29:22.987Z,3.78
2018-12-30T05:30:22.972Z,3.64
2018-12-30T05:31:22.955Z,3.68
2018-12-30T05:32:22.943Z,3.71
2018-12-30T05:33:22.925Z,3.71
2018-12-30T05:34:22.909Z,3.71
2018-12-30T05:35:22.893Z,3.71
2018-12-30T05:36:22.878Z,3.77
2018-12-30T05:37:22.862Z,3.82
2018-12-30T05:38:22.847Z,3.74
2018-12-30T05:39:22.829Z,3.72
2018-12-30T05:40:22.815Z,3.74
2018-12-30T05:41:22.799Z,3.81
2018-12-30T05:42:22.787Z,3.78
2018-12-30T05:43:22.766Z,3.78
2018-12-30T05:44:22.756Z,3.84
2018-12-30T05:45:22.741Z,3.84
2018-12-30T05:46:22.719Z,3.86
2018-12-30T05:47:22.704Z,3.84
2018-12-30T05:48:22.690Z,3.88
2018-12-30T05:49:22.672Z,3.78
2018-12-30T05:50:22.655Z,3.75
2018-12-30T05:51:22.641Z,3.74
2018-12-30T05:52:22.624Z,3.78
2018-12-30T05:53:22.609Z,3.88
2018-12-30T05:54:22.595Z,3.81
2018-12-30T05:55:22.577Z,3.86
2018-12-30T05:56:22.561Z,3.81
2018-12-30T05:57:22.545Z,3.86
2018-12-30T05:58:22.534Z,3.88
2018-12-30T05:59:22.513Z,3.81
2018-12-30T06:00:22.498Z,3.82
2018-12-30T06:01:22.480Z,3.82
2018-12-30T06:02:22.465Z,3.89
2018-12-30T06:03:22.448Z,3.84
2018-12-30T06:04:22.436Z,3.77
2018-12-30T06:05:22.420Z,3.74
2018-12-30T06:06:22.400Z,3.84
2018-12-30T06:07:22.388Z,3.75
2018-12-30T06:08:22.370Z,3.75
2018-12-30T06:09:22.357Z,3.78
2018-12-30T06:10:22.338Z,3.60
2018-12-30T06:11:22.324Z,3.72
2018-12-30T06:12:22.307Z,3.72
2018-12-30T06:13:22.292Z,3.72
2018-12-30T06:14:22.277Z,3.67
2018-12-30T06:15:22.262Z,3.72
2018-12-30T06:16:22.243Z,3.59
2018-12-30T06:17:22.228Z,3.74
2018-12-30T06:18:22.212Z,3.75
2018-12-30T06:19:22.196Z,3.81
2018-12-30T06:20:22.181Z,3.72
2018-12-30T06:21:22.166Z,3.80
2018-12-30T06:22:22.152Z,3.74
2018-12-30T06:23:22.135Z,3.75
2018-12-30T06:24:22.118Z,3.72
2018-12-30T06:25:22.103Z,3.78
2018-12-30T06:26:22.086Z,3.74
2018-12-30T06:27:22.073Z,3.75
2018-12-30T06:28:22.055Z,3.75
2018-12-30T06:29:22.040Z,3.72
2018-12-30T06:30:22.021Z,3.75
2018-12-30T06:31:22.007Z,3.75
2018-12-30T06:32:21.993Z,3.78
2018-12-30T06:33:21.977Z,3.81
2018-12-30T06:34:21.960Z,3.78
2018-12-30T06:35:21.946Z,3.77
2018-12-30T06:36:21.931Z,3.78
2018-12-30T06:37:21.913Z,3.75
2018-12-30T06:38:21.900Z,3.81
2018-12-30T06:39:21.881Z,3.77
2018-12-30T06:40:21.869Z,3.74
2018-12-30T06:41:21.851Z,3.78
2018-12-30T06:42:21.835Z,3.81
2018-12-30T06:43:21.818Z,3.84
2018-12-30T06:44:21.803Z,3.88
2018-12-30T06:45:21.791Z,3.84
2018-12-30T06:46:21.771Z,3.78
2018-12-30T06:47:21.755Z,3.77
2018-12-30T06:48:21.739Z,3.82
2018-12-30T06:49:21.729Z,3.90
2018-12-30T06:50:21.707Z,3.84
2018-12-30T06:51:21.692Z,3.86
2018-12-30T06:52:21.677Z,3.81
2018-12-30T06:53:21.665Z,3.80
2018-12-30T06:54:21.644Z,3.78
2018-12-30T06:55:21.629Z,3.81
2018-12-30T06:56:21.614Z,3.81
2018-12-30T06:57:21.599Z,3.80
2018-12-30T06:58:21.583Z,3.88
2018-12-30T06:59:21.565Z,3.86
2018-12-30T07:00:21.550Z,3.84
2018-12-30T07:01:21.534Z,3.78
2018-12-30T07:02:21.521Z,3.80
2018-12-30T07:03:21.504Z,3.80
2018-12-30T07:04:21.489Z,3.88
2018-12-30T07:05:21.474Z,3.80
2018-12-30T07:06:21.456Z,3.81
2018-12-30T07:07:21.440Z,3.77
2018-12-30T07:08:21.426Z,3.74
2018-12-30T07:09:21.410Z,3.74
2018-12-30T07:10:21.393Z,3.75
2018-12-30T07:11:21.376Z,3.86
2018-12-30T07:12:21.363Z,3.86
2018-12-30T07:13:21.347Z,3.92
2018-12-30T07:14:21.331Z,3.96
2018-12-30T07:15:21.316Z,4.00
2018-12-30T07:16:21.301Z,3.93
2018-12-30T07:17:21.283Z,3.93
2018-12-30T07:18:21.266Z,3.98
2018-12-30T07:19:21.252Z,4.07
2018-12-30T07:20:21.235Z,4.06
2018-12-30T07:21:21.221Z,3.99
2018-12-30T07:22:21.204Z,4.06
2018-12-30T07:23:21.188Z,3.90
2018-12-30T07:24:21.173Z,3.92
2018-12-30T07:25:21.159Z,3.92
2018-12-30T07:26:21.141Z,3.96
2018-12-30T07:27:21.126Z,3.93
2018-12-30T07:28:21.111Z,3.89
2018-12-30T07:29:21.094Z,3.80
2018-12-30T07:30:21.078Z,3.81
2018-12-30T07:31:21.064Z,3.90
2018-12-30T07:32:21.049Z,3.89
2018-12-30T07:33:23.048Z,3.90
2018-12-30T07:34:21.016Z,3.93
2018-12-30T07:35:20.999Z,3.99
2018-12-30T07:36:20.985Z,3.98
2018-12-30T07:37:20.971Z,3.93
2018-12-30T07:38:20.952Z,3.96
2018-12-30T07:39:20.994Z,3.80
2018-12-30T07:40:20.923Z,3.84
2018-12-30T07:41:20.908Z,3.89
2018-12-30T07:42:20.890Z,3.89
2018-12-30T07:43:20.875Z,3.93
2018-12-30T07:44:20.861Z,3.98
2018-12-30T07:45:20.848Z,3.96
2018-12-30T07:46:20.829Z,3.93
2018-12-30T07:47:20.811Z,3.98
2018-12-30T07:48:20.799Z,3.96
2018-12-30T07:49:20.781Z,4.02
2018-12-30T07:50:20.767Z,3.99
2018-12-30T07:51:20.751Z,3.95
2018-12-30T07:52:20.734Z,3.98
2018-12-30T07:53:20.720Z,4.04
2018-12-30T07:54:20.703Z,3.93
2018-12-30T07:55:20.690Z,3.95
2018-12-30T07:56:20.672Z,4.06
2018-12-30T07:57:20.656Z,3.96
2018-12-30T07:58:20.639Z,4.02
2018-12-30T07:59:20.626Z,3.92
2018-12-30T08:00:20.611Z,4.08
2018-12-30T08:01:20.595Z,4.11
2018-12-30T08:02:20.579Z,4.18
2018-12-30T08:03:20.562Z,4.18
2018-12-30T08:04:20.548Z,4.16
2018-12-30T08:05:20.532Z,4.11
2018-12-30T08:06:20.514Z,4.11
2018-12-30T08:07:20.501Z,4.08
2018-12-30T08:08:20.487Z,4.17
2018-12-30T08:09:20.468Z,4.10
2018-12-30T08:10:20.454Z,4.10
2018-12-30T08:11:20.438Z,4.07
2018-12-30T08:12:20.422Z,4.13
2018-12-30T08:13:20.408Z,4.18
2018-12-30T08:14:20.390Z,4.21
2018-12-30T08:15:20.376Z,4.14
2018-12-30T08:16:20.361Z,4.14
2018-12-30T08:17:20.344Z,4.20
2018-12-30T08:18:20.338Z,4.17
2018-12-30T08:19:20.312Z,4.11
2018-12-30T08:20:20.300Z,4.20
2018-12-30T08:21:20.284Z,4.14
2018-12-30T08:22:20.266Z,4.20
2018-12-30T08:23:21.694Z,4.20
2018-12-30T08:24:20.239Z,4.10
2018-12-30T08:25:20.221Z,4.18
2018-12-30T08:26:20.205Z,4.21
2018-12-30T08:27:20.191Z,4.32
2018-12-30T08:28:24.964Z,4.34
2018-12-30T08:29:20.161Z,4.43
2018-12-30T08:30:20.144Z,4.47
2018-12-30T08:31:20.128Z,4.46
2018-12-30T08:32:20.114Z,4.49
2018-12-30T08:33:20.100Z,4.38
2018-12-30T08:34:20.081Z,4.35
2018-12-30T08:35:20.066Z,4.44
2018-12-30T08:36:20.051Z,4.44
2018-12-30T08:37:20.036Z,4.46
2018-12-30T08:38:20.019Z,4.43
2018-12-30T08:39:20.004Z,4.38
2018-12-30T08:40:19.988Z,4.42
2018-12-30T08:41:19.973Z,4.39
2018-12-30T08:42:19.957Z,4.43
2018-12-30T08:43:19.941Z,4.46
2018-12-30T08:44:19.926Z,4.46
2018-12-30T08:45:19.914Z,4.39
2018-12-30T08:46:19.893Z,4.43
2018-12-30T08:47:19.882Z,4.39
2018-12-30T08:48:19.865Z,4.42
2018-12-30T08:49:19.850Z,4.39
2018-12-30T08:50:19.834Z,4.43
2018-12-30T08:51:19.817Z,4.47
2018-12-30T08:52:19.800Z,4.43
2018-12-30T08:53:19.787Z,4.46
2018-12-30T08:54:19.770Z,4.46
2018-12-30T08:55:19.753Z,4.57
2018-12-30T08:56:19.817Z,4.54
2018-12-30T08:57:19.723Z,4.62
2018-12-30T08:58:19.706Z,4.75
2018-12-30T08:59:19.694Z,4.62
2018-12-30T09:00:19.681Z,4.61
2018-12-30T09:01:19.663Z,4.62
2018-12-30T09:02:19.645Z,4.64
2018-12-30T09:03:19.629Z,4.57
2018-12-30T09:04:19.619Z,4.59
2018-12-30T09:05:19.598Z,4.64
2018-12-30T09:06:19.583Z,4.71
2018-12-30T09:07:19.567Z,4.64
2018-12-30T09:08:19.552Z,4.67
2018-12-30T09:09:19.538Z,4.57
2018-12-30T09:10:19.522Z,4.69
2018-12-30T09:11:19.508Z,4.62
2018-12-30T09:12:19.492Z,4.67
2018-12-30T09:13:19.478Z,4.69
2018-12-30T09:14:19.460Z,4.83
2018-12-30T09:15:19.445Z,4.67
2018-12-30T09:16:19.431Z,4.72
2018-12-30T09:17:19.416Z,4.86
2018-12-30T09:18:19.400Z,4.87
2018-12-30T09:19:19.386Z,4.93
2018-12-30T09:20:19.370Z,4.83
2018-12-30T09:21:19.359Z,4.79
2018-12-30T09:22:19.339Z,4.83
2018-12-30T09:23:19.418Z,4.84
2018-12-30T09:24:19.308Z,4.80
2018-12-30T09:25:19.292Z,4.87
2018-12-30T09:26:19.275Z,4.84
2018-12-30T09:27:19.263Z,4.84
2018-12-30T09:28:19.252Z,4.87
2018-12-30T09:29:19.231Z,4.88
2018-12-30T09:30:19.215Z,5.05
2018-12-30T09:31:19.202Z,5.09
2018-12-30T09:32:19.185Z,4.99
2018-12-30T09:33:19.170Z,4.99
2018-12-30T09:34:19.157Z,4.97
2018-12-30T09:35:19.141Z,5.01
2018-12-30T09:36:19.127Z,4.91
2018-12-30T09:37:19.112Z,4.96
2018-12-30T09:38:19.096Z,4.96
2018-12-30T09:39:19.079Z,4.93
2018-12-30T09:40:19.065Z,5.01
2018-12-30T09:41:19.049Z,4.97
2018-12-30T09:42:19.035Z,4.96
2018-12-30T09:43:19.019Z,5.04
2018-12-30T09:44:19.005Z,4.96
2018-12-30T09:45:18.989Z,5.01
2018-12-30T09:46:18.972Z,5.01
2018-12-30T09:47:18.959Z,5.04
2018-12-30T09:48:18.944Z,4.97
2018-12-30T09:49:18.929Z,5.01
2018-12-30T09:50:18.911Z,5.05
2018-12-30T09:51:18.898Z,5.09
2018-12-30T09:52:18.884Z,4.99
2018-12-30T09:53:18.870Z,5.04
2018-12-30T09:54:18.852Z,4.96
2018-12-30T09:55:18.839Z,5.01
2018-12-30T09:56:18.824Z,5.06
2018-12-30T09:57:18.807Z,5.01
2018-12-30T09:58:18.793Z,5.11
2018-12-30T09:59:18.777Z,5.15
2018-12-30T10:00:18.761Z,5.15
2018-12-30T10:01:18.747Z,5.11
2018-12-30T10:02:18.733Z,5.06
2018-12-30T10:03:18.718Z,5.06
2018-12-30T10:04:18.706Z,5.11
2018-12-30T10:05:18.691Z,5.09
2018-12-30T10:06:18.673Z,5.09
2018-12-30T10:07:18.659Z,5.08
2018-12-30T10:08:18.644Z,5.08
2018-12-30T10:09:18.630Z,5.06
2018-12-30T10:10:18.611Z,5.09
2018-12-30T10:11:18.602Z,5.06
2018-12-30T10:12:18.583Z,5.05
2018-12-30T10:13:18.568Z,5.04
2018-12-30T10:14:18.552Z,5.04
2018-12-30T10:15:18.537Z,5.06
2018-12-30T10:16:18.522Z,5.14
2018-12-30T10:17:18.504Z,5.20
2018-12-30T10:18:18.490Z,5.20
2018-12-30T10:19:18.475Z,5.24
2018-12-30T10:20:18.467Z,5.19
2018-12-30T10:21:18.448Z,5.22
2018-12-30T10:22:18.431Z,5.32
2018-12-30T10:23:18.415Z,5.35
2018-12-30T10:24:18.402Z,5.38
2018-12-30T10:25:18.389Z,5.35
2018-12-30T10:26:18.374Z,5.40
2018-12-30T10:27:18.355Z,5.32
2018-12-30T10:28:18.341Z,5.44
2018-12-30T10:29:18.327Z,5.47
2018-12-30T10:30:18.311Z,5.42
2018-12-30T10:31:18.296Z,5.37
2018-12-30T10:32:18.281Z,5.40
2018-12-30T10:33:18.264Z,5.29
2018-12-30T10:34:18.249Z,5.27
2018-12-30T10:35:18.235Z,5.33
2018-12-30T10:36:18.219Z,5.27
2018-12-30T10:37:18.206Z,5.35
2018-12-30T10:38:18.191Z,5.38
2018-12-30T10:39:18.173Z,5.40
2018-12-30T10:40:18.159Z,5.38
2018-12-30T10:41:18.146Z,5.38
2018-12-30T10:42:18.129Z,5.42
2018-12-30T10:43:18.117Z,5.27
2018-12-30T10:44:18.100Z,5.23
2018-12-30T10:45:18.087Z,5.24
2018-12-30T10:46:18.071Z,5.27
2018-12-30T10:47:18.055Z,5.22
2018-12-30T10:48:18.040Z,5.30
2018-12-30T10:49:18.030Z,5.23
2018-12-30T10:50:18.012Z,5.20
2018-12-30T10:51:17.999Z,5.23
2018-12-30T10:52:17.981Z,5.23
2018-12-30T10:53:17.971Z,5.42
2018-12-30T10:54:17.952Z,5.41
2018-12-30T10:55:17.936Z,5.45
2018-12-30T10:56:17.921Z,5.41
2018-12-30T10:57:17.909Z,5.45
2018-12-30T10:58:17.894Z,5.47
2018-12-30T10:59:17.876Z,5.47
2018-12-30T11:00:17.865Z,5.45
2018-12-30T11:01:17.849Z,5.47
2018-12-30T11:02:17.832Z,5.49
2018-12-30T11:03:17.820Z,5.49
2018-12-30T11:04:17.825Z,5.56
2018-12-30T11:05:17.789Z,5.60
2018-12-30T11:06:17.775Z,5.59
2018-12-30T11:07:17.761Z,5.62
2018-12-30T11:08:17.748Z,5.65
2018-12-30T11:09:17.774Z,5.66
2018-12-30T11:10:17.715Z,5.63
2018-12-30T11:11:17.700Z,5.62
2018-12-30T11:12:17.691Z,5.75
2018-12-30T11:13:17.670Z,5.73
2018-12-30T11:14:17.656Z,5.69
2018-12-30T11:15:17.644Z,5.63
2018-12-30T11:16:17.629Z,5.65
2018-12-30T11:17:17.611Z,5.75
2018-12-30T11:18:17.599Z,5.70
2018-12-30T11:19:17.583Z,5.78
2018-12-30T11:20:17.567Z,5.78
2018-12-30T11:21:17.556Z,5.74
2018-12-30T11:22:17.543Z,5.81
2018-12-30T11:23:17.524Z,5.75
2018-12-30T11:24:17.512Z,5.80
2018-12-30T11:25:17.497Z,5.67
2018-12-30T11:26:17.478Z,5.70
2018-12-30T11:27:17.511Z,5.74
2018-12-30T11:28:17.453Z,5.78
2018-12-30T11:29:17.438Z,5.69
2018-12-30T11:30:17.424Z,5.67
2018-12-30T11:31:17.406Z,5.65
2018-12-30T11:32:17.395Z,5.70
2018-12-30T11:33:17.381Z,5.63
2018-12-30T11:34:17.363Z,5.65
2018-12-30T11:35:17.442Z,5.67
2018-12-30T11:36:17.663Z,5.74
2018-12-30T11:37:17.321Z,5.73
2018-12-30T11:38:17.306Z,5.77
2018-12-30T11:39:17.293Z,5.77
2018-12-30T11:40:17.277Z,5.78
2018-12-30T11:41:17.261Z,5.84
2018-12-30T11:42:17.249Z,5.84
2018-12-30T11:43:17.239Z,5.84
2018-12-30T11:44:17.218Z,5.85
2018-12-30T11:45:17.205Z,5.85
2018-12-30T11:46:17.188Z,5.90
2018-12-30T11:47:17.178Z,5.95
2018-12-30T11:48:17.166Z,5.99
2018-12-30T11:49:17.148Z,5.95
2018-12-30T11:50:17.133Z,5.98
2018-12-30T11:51:17.118Z,5.95
2018-12-30T11:52:17.105Z,5.98
2018-12-30T11:53:17.090Z,5.99
2018-12-30T11:54:17.075Z,6.03
2018-12-30T11:55:17.061Z,5.99
2018-12-30T11:56:17.047Z,5.99
2018-12-30T11:57:17.035Z,6.05
2018-12-30T11:58:17.020Z,6.05
2018-12-30T11:59:17.005Z,6.05
2018-12-30T12:00:16.990Z,6.08
2018-12-30T12:01:16.976Z,6.05
2018-12-30T12:02:23.809Z,6.11
2018-12-30T12:03:16.949Z,6.13
2018-12-30T12:04:16.936Z,6.17
2018-12-30T12:05:16.920Z,6.11
2018-12-30T12:06:16.908Z,6.05
2018-12-30T12:07:16.890Z,6.14
2018-12-30T12:08:16.876Z,6.16
2018-12-30T12:09:16.870Z,6.01
2018-12-30T12:10:16.851Z,6.08
2018-12-30T12:11:16.835Z,6.03
2018-12-30T12:12:16.819Z,6.17
2018-12-30T12:13:16.804Z,6.14
2018-12-30T12:14:16.791Z,6.20
2018-12-30T12:15:16.777Z,6.16
2018-12-30T12:16:16.763Z,6.27
2018-12-30T12:17:16.749Z,6.13
2018-12-30T12:18:16.733Z,6.20
2018-12-30T12:19:16.720Z,6.20
2018-12-30T12:20:16.708Z,6.06
2018-12-30T12:21:16.692Z,6.06
2018-12-30T12:22:16.678Z,6.02
2018-12-30T12:23:16.664Z,6.03
2018-12-30T12:24:24.074Z,6.02
2018-12-30T12:25:16.637Z,6.02
2018-12-30T12:26:16.620Z,5.90
2018-12-30T12:27:16.608Z,6.05
2018-12-30T12:28:16.594Z,6.05
2018-12-30T12:29:16.579Z,6.03
2018-12-30T12:30:16.564Z,6.02
2018-12-30T12:31:16.550Z,5.95
2018-12-30T12:32:16.537Z,5.96
2018-12-30T12:33:16.523Z,5.92
2018-12-30T12:34:17.508Z,6.06
2018-12-30T12:35:16.491Z,6.10
2018-12-30T12:36:16.481Z,6.05
2018-12-30T12:37:16.462Z,6.06
2018-12-30T12:38:16.449Z,6.14
2018-12-30T12:39:16.437Z,6.16
2018-12-30T12:40:16.419Z,6.10
2018-12-30T12:41:16.405Z,6.20
2018-12-30T12:42:16.390Z,6.14
2018-12-30T12:43:16.376Z,6.17
2018-12-30T12:44:16.365Z,6.24
2018-12-30T12:45:16.351Z,6.17
2018-12-30T12:46:16.336Z,6.17
2018-12-30T12:47:16.321Z,6.24
2018-12-30T12:48:16.305Z,6.33
2018-12-30T12:49:16.291Z,6.35
2018-12-30T12:50:16.278Z,6.58
2018-12-30T12:51:16.264Z,6.53
2018-12-30T12:52:16.251Z,6.48
2018-12-30T12:53:16.236Z,6.48
2018-12-30T12:54:16.219Z,6.55
2018-12-30T12:55:16.208Z,6.46
2018-12-30T12:56:16.195Z,6.43
2018-12-30T12:57:16.180Z,6.45
2018-12-30T12:58:16.165Z,6.33
2018-12-30T12:59:16.150Z,6.30
2018-12-30T13:00:16.136Z,6.27
2018-12-30T13:01:16.122Z,6.25
2018-12-30T13:02:16.107Z,6.24
2018-12-30T13:03:16.093Z,6.16
2018-12-30T13:04:16.081Z,6.21
2018-12-30T13:05:16.069Z,6.17
2018-12-30T13:06:16.053Z,6.20
2018-12-30T13:07:16.038Z,6.19
2018-12-30T13:08:16.023Z,6.20
2018-12-30T13:09:16.011Z,6.27
2018-12-30T13:10:15.997Z,6.17
2018-12-30T13:11:15.980Z,6.16
2018-12-30T13:12:15.969Z,6.20
2018-12-30T13:13:15.952Z,6.20
2018-12-30T13:14:15.940Z,6.08
2018-12-30T13:15:15.927Z,6.19
2018-12-30T13:16:15.913Z,6.27
2018-12-30T13:17:15.899Z,6.17
2018-12-30T13:18:15.887Z,6.20